PWSweather.com
Personal Weather Stations
Station Observations
PICKERING
North Yorkshire, PickeringGB

North YorkshirePickeringGB

Lat: 54.2494, Lon: -0.7725

Elevation: 192

Station Type: Oregon Scientific WMR100

http://www.yorkshirewalker.co.uk/weather/

Latest ConditionsUpdated 10:15:01 PM GMT Thursday, Jul 18, 2019
Currently Today's Max Today's Min Today's Average
Temperature 57.6°F14.2°C 75.2°F24.0°C 57.6°F14.2°C 65.0°F18.3°C
Dew Point 44.6°F7.0°C 55.4°F13.0°C 44.6°F7.0°C 51.5°F10.8°C
Winds Calm Calm 11.0 mph -17.7 kmh - - 4.0 mph 6.4 kmh
Wind Gusts -- 13.2 mph21.2 kmh - -
Humidity 61% 79% 48% 62%
Pressure 29.77 in1008.1 mb 29.77 in1008.1 mb 29.65 in1004.1 mb -
Precipitation - 0.06 in1.5 mm - -
Hour Temp Dew Point Humidity Winds Wind Gusts Pressure Precip Precip Rate Daily Precip Total
10:15 PM 57.6°F14.2°C 44.6°F7.0°C 61% Calm Calm -- 29.77 in1008.1 mb 0.00 in0.0 mm 0.00 in0.0 mm 0.06 in1.5 mm
10:10 PM 57.7°F14.3°C 44.6°F7.0°C 61% Calm Calm -- 29.77 in1008.1 mb 0.00 in0.0 mm 0.00 in0.0 mm 0.06 in1.5 mm
10:05 PM 57.9°F14.4°C 44.6°F7.0°C 61% Calm Calm -- 29.77 in1008.1 mb 0.00 in0.0 mm 0.00 in0.0 mm 0.06 in1.5 mm
10:00 PM 58.3°F14.6°C 44.6°F7.0°C 61% Calm Calm -- 29.77 in1008.1 mb 0.00 in0.0 mm 0.00 in0.0 mm 0.06 in1.5 mm
09:55 PM 58.3°F14.6°C 44.6°F7.0°C 60% Calm Calm -- 29.77 in1008.1 mb 0.00 in0.0 mm 0.00 in0.0 mm 0.06 in1.5 mm
09:50 PM 58.6°F14.8°C 44.6°F7.0°C 60% 0.4 mph S0.6 kmh S 3.1 mph5.0 kmh 29.77 in1008.1 mb 0.00 in0.0 mm 0.00 in0.0 mm 0.06 in1.5 mm
09:45 PM 58.8°F14.9°C 46.4°F8.0°C 60% 0.9 mph SSW1.4 kmh SSW 3.1 mph5.0 kmh 29.77 in1008.1 mb 0.00 in0.0 mm 0.00 in0.0 mm 0.06 in1.5 mm
09:40 PM 59.0°F15.0°C 44.6°F7.0°C 59% 0.8 mph SSW1.3 kmh SSW 3.1 mph5.0 kmh 29.77 in1008.1 mb 0.00 in0.0 mm 0.00 in0.0 mm 0.06 in1.5 mm
09:35 PM 59.0°F15.0°C 46.4°F8.0°C 60% Calm Calm -- 29.77 in1008.1 mb 0.00 in0.0 mm 0.00 in0.0 mm 0.06 in1.5 mm
09:30 PM 59.0°F15.0°C 44.6°F7.0°C 59% Calm Calm -- 29.77 in1008.1 mb 0.00 in0.0 mm 0.00 in0.0 mm 0.06 in1.5 mm
09:25 PM 59.2°F15.1°C 44.6°F7.0°C 59% Calm Calm -- 29.77 in1008.1 mb 0.00 in0.0 mm 0.00 in0.0 mm 0.06 in1.5 mm
09:20 PM 59.2°F15.1°C 44.6°F7.0°C 59% Calm Calm -- 29.77 in1008.1 mb 0.00 in0.0 mm 0.00 in0.0 mm 0.06 in1.5 mm
09:15 PM 59.4°F15.2°C 46.4°F8.0°C 59% Calm Calm -- 29.77 in1008.1 mb 0.00 in0.0 mm 0.00 in0.0 mm 0.06 in1.5 mm
09:10 PM 59.5°F15.3°C 44.6°F7.0°C 58% Calm Calm -- 29.77 in1008.1 mb 0.00 in0.0 mm 0.00 in0.0 mm 0.06 in1.5 mm
09:05 PM 59.9°F15.5°C 46.4°F8.0°C 58% Calm Calm -- 29.77 in1008.1 mb 0.00 in0.0 mm 0.00 in0.0 mm 0.06 in1.5 mm
09:00 PM 60.1°F15.6°C 44.6°F7.0°C 57% Calm Calm -- 29.77 in1008.1 mb 0.00 in0.0 mm 0.00 in0.0 mm 0.06 in1.5 mm
08:55 PM 60.6°F15.9°C 44.6°F7.0°C 56% Calm Calm -- 29.77 in1008.1 mb 0.00 in0.0 mm 0.00 in0.0 mm 0.06 in1.5 mm
08:50 PM 61.0°F16.1°C 44.6°F7.0°C 56% Calm Calm -- 29.77 in1008.1 mb 0.00 in0.0 mm 0.00 in0.0 mm 0.06 in1.5 mm
08:45 PM 61.2°F16.2°C 44.6°F7.0°C 55% Calm Calm -- 29.77 in1008.1 mb 0.00 in0.0 mm 0.00 in0.0 mm 0.06 in1.5 mm
08:40 PM 61.3°F16.3°C 44.6°F7.0°C 55% Calm Calm -- 29.77 in1008.1 mb 0.00 in0.0 mm 0.00 in0.0 mm 0.06 in1.5 mm
08:35 PM 61.5°F16.4°C 44.6°F7.0°C 55% Calm Calm -- 29.77 in1008.1 mb 0.00 in0.0 mm 0.00 in0.0 mm 0.06 in1.5 mm
08:30 PM 62.1°F16.7°C 46.4°F8.0°C 54% Calm Calm -- 29.77 in1008.1 mb 0.00 in0.0 mm 0.00 in0.0 mm 0.06 in1.5 mm
08:25 PM 62.2°F16.8°C 46.4°F8.0°C 54% 0.6 mph NW1.0 kmh NW 1.3 mph2.1 kmh 29.77 in1008.1 mb 0.00 in0.0 mm 0.00 in0.0 mm 0.06 in1.5 mm
08:20 PM 62.6°F17.0°C 44.6°F7.0°C 52% 1.1 mph W1.8 kmh W 1.3 mph2.1 kmh 29.77 in1008.1 mb 0.00 in0.0 mm 0.00 in0.0 mm 0.06 in1.5 mm
08:15 PM 62.8°F17.1°C 44.6°F7.0°C 52% 1.1 mph SSW1.8 kmh SSW 1.1 mph1.8 kmh 29.77 in1008.1 mb 0.00 in0.0 mm 0.00 in0.0 mm 0.06 in1.5 mm
08:10 PM 63.0°F17.2°C 46.4°F8.0°C 52% 3.1 mph W5.0 kmh W 3.1 mph5.0 kmh 29.77 in1008.1 mb 0.00 in0.0 mm 0.00 in0.0 mm 0.06 in1.5 mm
08:05 PM 63.1°F17.3°C 46.4°F8.0°C 52% 3.1 mph W5.0 kmh W 3.1 mph5.0 kmh 29.77 in1008.1 mb 0.00 in0.0 mm 0.00 in0.0 mm 0.06 in1.5 mm
08:00 PM 63.5°F17.5°C 46.4°F8.0°C 52% 3.1 mph W5.0 kmh W 3.1 mph5.0 kmh 29.77 in1008.1 mb 0.00 in0.0 mm 0.00 in0.0 mm 0.06 in1.5 mm
07:55 PM 63.7°F17.6°C 46.4°F8.0°C 51% 3.0 mph WSW4.8 kmh WSW 3.1 mph5.0 kmh 29.77 in1008.1 mb 0.00 in0.0 mm 0.00 in0.0 mm 0.06 in1.5 mm
07:50 PM 64.0°F17.8°C 46.4°F8.0°C 51% 3.0 mph W4.8 kmh W 3.1 mph5.0 kmh 29.77 in1008.1 mb 0.00 in0.0 mm 0.00 in0.0 mm 0.06 in1.5 mm
07:45 PM 64.2°F17.9°C 46.4°F8.0°C 51% 3.0 mph WNW4.8 kmh WNW 3.1 mph5.0 kmh 29.74 in1007.1 mb 0.00 in0.0 mm 0.00 in0.0 mm 0.06 in1.5 mm
07:40 PM 64.6°F18.1°C 46.4°F8.0°C 51% 3.1 mph NNW5.0 kmh NNW 3.1 mph5.0 kmh 29.74 in1007.1 mb 0.00 in0.0 mm 0.00 in0.0 mm 0.06 in1.5 mm
07:35 PM 64.8°F18.2°C 46.4°F8.0°C 51% 3.1 mph NW5.0 kmh NW 3.8 mph6.1 kmh 29.74 in1007.1 mb 0.00 in0.0 mm 0.00 in0.0 mm 0.06 in1.5 mm
07:30 PM 64.9°F18.3°C 46.4°F8.0°C 51% 3.3 mph WSW5.3 kmh WSW 3.8 mph6.1 kmh 29.74 in1007.1 mb 0.00 in0.0 mm 0.00 in0.0 mm 0.06 in1.5 mm
07:25 PM 65.1°F18.4°C 46.4°F8.0°C 51% 3.8 mph SW6.1 kmh SW 3.8 mph6.1 kmh 29.74 in1007.1 mb 0.00 in0.0 mm 0.00 in0.0 mm 0.06 in1.5 mm
07:20 PM 65.3°F18.5°C 48.2°F9.0°C 51% 4.2 mph SW6.8 kmh SW 6.5 mph10.5 kmh 29.74 in1007.1 mb 0.00 in0.0 mm 0.00 in0.0 mm 0.06 in1.5 mm
07:15 PM 65.5°F18.6°C 46.4°F8.0°C 50% 5.3 mph WSW8.5 kmh WSW 6.5 mph10.5 kmh 29.74 in1007.1 mb 0.00 in0.0 mm 0.00 in0.0 mm 0.06 in1.5 mm
07:10 PM 65.8°F18.8°C 46.4°F8.0°C 50% 6.0 mph W9.7 kmh W 6.5 mph10.5 kmh 29.74 in1007.1 mb 0.00 in0.0 mm 0.00 in0.0 mm 0.06 in1.5 mm
07:05 PM 66.2°F19.0°C 46.4°F8.0°C 49% 4.4 mph WNW7.1 kmh WNW 6.5 mph10.5 kmh 29.74 in1007.1 mb 0.00 in0.0 mm 0.00 in0.0 mm 0.06 in1.5 mm
07:00 PM 66.2°F19.0°C 46.4°F8.0°C 49% 2.7 mph NW4.3 kmh NW 2.9 mph4.7 kmh 29.74 in1007.1 mb 0.00 in0.0 mm 0.00 in0.0 mm 0.06 in1.5 mm
06:55 PM 66.4°F19.1°C 46.4°F8.0°C 49% 1.9 mph NNW3.1 kmh NNW 2.9 mph4.7 kmh 29.74 in1007.1 mb 0.00 in0.0 mm 0.00 in0.0 mm 0.06 in1.5 mm
06:50 PM 66.7°F19.3°C 48.2°F9.0°C 50% 1.1 mph NNE1.8 kmh NNE 1.1 mph1.8 kmh 29.74 in1007.1 mb 0.00 in0.0 mm 0.00 in0.0 mm 0.06 in1.5 mm
06:45 PM 66.9°F19.4°C 48.2°F9.0°C 49% 3.0 mph W4.8 kmh W 7.6 mph12.2 kmh 29.74 in1007.1 mb 0.00 in0.0 mm 0.00 in0.0 mm 0.06 in1.5 mm
06:40 PM 67.1°F19.5°C 48.2°F9.0°C 50% 3.5 mph WSW5.6 kmh WSW 7.6 mph12.2 kmh 29.74 in1007.1 mb 0.00 in0.0 mm 0.00 in0.0 mm 0.06 in1.5 mm
06:35 PM 67.5°F19.7°C 48.2°F9.0°C 50% 3.3 mph W5.3 kmh W 5.4 mph8.7 kmh 29.74 in1007.1 mb 0.00 in0.0 mm 0.00 in0.0 mm 0.06 in1.5 mm
06:30 PM 67.6°F19.8°C 48.2°F9.0°C 50% 4.4 mph SE7.1 kmh SE 5.6 mph9.0 kmh 29.74 in1007.1 mb 0.00 in0.0 mm 0.00 in0.0 mm 0.06 in1.5 mm
06:25 PM 67.8°F19.9°C 48.2°F9.0°C 50% 6.0 mph SSW9.7 kmh SSW 7.6 mph12.2 kmh 29.74 in1007.1 mb 0.00 in0.0 mm 0.00 in0.0 mm 0.06 in1.5 mm
06:20 PM 68.0°F20.0°C 48.2°F9.0°C 50% 5.8 mph WSW9.3 kmh WSW 7.6 mph12.2 kmh 29.74 in1007.1 mb 0.00 in0.0 mm 0.00 in0.0 mm 0.06 in1.5 mm
06:15 PM 68.2°F20.1°C 48.2°F9.0°C 50% 4.6 mph WSW7.4 kmh WSW 7.6 mph12.2 kmh 29.74 in1007.1 mb 0.00 in0.0 mm 0.00 in0.0 mm 0.06 in1.5 mm
06:10 PM 68.4°F20.2°C 48.2°F9.0°C 49% 3.5 mph W5.6 kmh W 3.6 mph5.8 kmh 29.74 in1007.1 mb 0.00 in0.0 mm 0.00 in0.0 mm 0.06 in1.5 mm
06:05 PM 68.2°F20.1°C 48.2°F9.0°C 49% 3.4 mph WNW5.5 kmh WNW 3.4 mph5.5 kmh 29.74 in1007.1 mb 0.00 in0.0 mm 0.00 in0.0 mm 0.06 in1.5 mm
06:00 PM 68.4°F20.2°C 48.2°F9.0°C 49% 4.9 mph WSW7.9 kmh WSW 6.5 mph10.5 kmh 29.74 in1007.1 mb 0.00 in0.0 mm 0.00 in0.0 mm 0.06 in1.5 mm
05:55 PM 68.9°F20.5°C 50.0°F10.0°C 49% 6.0 mph SW9.7 kmh SW 6.5 mph10.5 kmh 29.74 in1007.1 mb 0.00 in0.0 mm 0.00 in0.0 mm 0.06 in1.5 mm
05:50 PM 68.7°F20.4°C 50.0°F10.0°C 50% 5.8 mph SW9.3 kmh SW 6.5 mph10.5 kmh 29.74 in1007.1 mb 0.00 in0.0 mm 0.00 in0.0 mm 0.06 in1.5 mm
05:45 PM 68.9°F20.5°C 50.0°F10.0°C 50% 4.1 mph SW6.6 kmh SW 6.5 mph10.5 kmh 29.74 in1007.1 mb 0.00 in0.0 mm 0.00 in0.0 mm 0.06 in1.5 mm
05:40 PM 68.5°F20.3°C 50.0°F10.0°C 50% 3.1 mph SW5.0 kmh SW 3.6 mph5.8 kmh 29.74 in1007.1 mb 0.00 in0.0 mm 0.00 in0.0 mm 0.06 in1.5 mm
05:35 PM 68.7°F20.4°C 50.0°F10.0°C 50% 3.0 mph SW4.8 kmh SW 3.6 mph5.8 kmh 29.74 in1007.1 mb 0.00 in0.0 mm 0.00 in0.0 mm 0.06 in1.5 mm
05:30 PM 68.7°F20.4°C 50.0°F10.0°C 50% 3.1 mph SW5.0 kmh SW 3.6 mph5.8 kmh 29.74 in1007.1 mb 0.00 in0.0 mm 0.00 in0.0 mm 0.06 in1.5 mm
05:25 PM 68.7°F20.4°C 50.0°F10.0°C 50% 3.2 mph SW5.1 kmh SW 3.6 mph5.8 kmh 29.74 in1007.1 mb 0.00 in0.0 mm 0.00 in0.0 mm 0.06 in1.5 mm
05:20 PM 68.7°F20.4°C 48.2°F9.0°C 49% 2.8 mph WSW4.5 kmh WSW 2.9 mph4.7 kmh 29.74 in1007.1 mb 0.00 in0.0 mm 0.00 in0.0 mm 0.06 in1.5 mm
05:15 PM 68.9°F20.5°C 50.0°F10.0°C 49% 2.8 mph W4.5 kmh W 3.6 mph5.8 kmh 29.71 in1006.1 mb 0.00 in0.0 mm 0.00 in0.0 mm 0.06 in1.5 mm
05:10 PM 69.1°F20.6°C 50.0°F10.0°C 49% 3.7 mph W6.0 kmh W 6.5 mph10.5 kmh 29.71 in1006.1 mb 0.00 in0.0 mm 0.00 in0.0 mm 0.06 in1.5 mm
05:05 PM 69.4°F20.8°C 50.0°F10.0°C 49% 5.7 mph WNW9.2 kmh WNW 10.5 mph16.9 kmh 29.71 in1006.1 mb 0.00 in0.0 mm 0.00 in0.0 mm 0.06 in1.5 mm
05:00 PM 69.3°F20.7°C 50.0°F10.0°C 49% 5.7 mph NW9.2 kmh NW 10.5 mph16.9 kmh 29.71 in1006.1 mb 0.00 in0.0 mm 0.00 in0.0 mm 0.06 in1.5 mm
04:55 PM 69.3°F20.7°C 50.0°F10.0°C 49% 3.9 mph NW6.3 kmh NW 4.0 mph6.4 kmh 29.71 in1006.1 mb 0.00 in0.0 mm 0.00 in0.0 mm 0.06 in1.5 mm
04:50 PM 69.4°F20.8°C 50.0°F10.0°C 50% 4.0 mph NW6.4 kmh NW 4.0 mph6.4 kmh 29.71 in1006.1 mb 0.00 in0.0 mm 0.00 in0.0 mm 0.06 in1.5 mm
04:45 PM 69.4°F20.8°C 50.0°F10.0°C 50% 5.0 mph ESE8.0 kmh ESE 6.3 mph10.1 kmh 29.71 in1006.1 mb 0.00 in0.0 mm 0.00 in0.0 mm 0.06 in1.5 mm
04:40 PM 69.4°F20.8°C 50.0°F10.0°C 51% 5.1 mph ESE8.2 kmh ESE 6.3 mph10.1 kmh 29.71 in1006.1 mb 0.00 in0.0 mm 0.00 in0.0 mm 0.06 in1.5 mm
04:35 PM 69.4°F20.8°C 50.0°F10.0°C 51% 4.8 mph SW7.7 kmh SW 6.3 mph10.1 kmh 29.71 in1006.1 mb 0.00 in0.0 mm 0.00 in0.0 mm 0.06 in1.5 mm
04:30 PM 69.6°F20.9°C 51.8°F11.0°C 51% 4.3 mph SW6.9 kmh SW 5.4 mph8.7 kmh 29.71 in1006.1 mb 0.00 in0.0 mm 0.00 in0.0 mm 0.06 in1.5 mm
04:25 PM 69.6°F20.9°C 51.8°F11.0°C 51% 3.3 mph SSW5.3 kmh SSW 5.4 mph8.7 kmh 29.71 in1006.1 mb 0.00 in0.0 mm 0.00 in0.0 mm 0.06 in1.5 mm
04:20 PM 69.4°F20.8°C 50.0°F10.0°C 51% 4.3 mph SSW6.9 kmh SSW 11.0 mph17.7 kmh 29.71 in1006.1 mb 0.00 in0.0 mm 0.00 in0.0 mm 0.06 in1.5 mm
04:15 PM 69.3°F20.7°C 50.0°F10.0°C 51% 7.7 mph NNE12.4 kmh NNE 11.0 mph17.7 kmh 29.74 in1007.1 mb 0.00 in0.0 mm 0.00 in0.0 mm 0.06 in1.5 mm
04:10 PM 69.6°F20.9°C 51.8°F11.0°C 51% 11.0 mph NNE17.7 kmh NNE 11.0 mph17.7 kmh 29.74 in1007.1 mb 0.00 in0.0 mm 0.00 in0.0 mm 0.06 in1.5 mm
04:05 PM 69.3°F20.7°C 50.0°F10.0°C 51% 10.1 mph NNE16.3 kmh NNE 11.0 mph17.7 kmh 29.74 in1007.1 mb 0.00 in0.0 mm 0.00 in0.0 mm 0.06 in1.5 mm
04:00 PM 69.3°F20.7°C 50.0°F10.0°C 50% 7.5 mph N12.1 kmh N 11.0 mph17.7 kmh 29.71 in1006.1 mb 0.00 in0.0 mm 0.00 in0.0 mm 0.06 in1.5 mm
03:55 PM 69.6°F20.9°C 51.8°F11.0°C 51% 3.5 mph WNW5.6 kmh WNW 4.0 mph6.4 kmh 29.71 in1006.1 mb 0.00 in0.0 mm 0.00 in0.0 mm 0.06 in1.5 mm
03:50 PM 70.2°F21.2°C 50.0°F10.0°C 49% 2.1 mph W3.4 kmh W 4.0 mph6.4 kmh 29.71 in1006.1 mb 0.00 in0.0 mm 0.00 in0.0 mm 0.06 in1.5 mm
03:45 PM 70.7°F21.5°C 51.8°F11.0°C 49% 2.2 mph WSW3.5 kmh WSW 3.8 mph6.1 kmh 29.71 in1006.1 mb 0.00 in0.0 mm 0.00 in0.0 mm 0.06 in1.5 mm
03:40 PM 70.7°F21.5°C 51.8°F11.0°C 49% 3.8 mph WSW6.1 kmh WSW 3.8 mph6.1 kmh 29.71 in1006.1 mb 0.00 in0.0 mm 0.00 in0.0 mm 0.06 in1.5 mm
03:35 PM 70.9°F21.6°C 51.8°F11.0°C 49% 3.6 mph WSW5.8 kmh WSW 3.8 mph6.1 kmh 29.71 in1006.1 mb 0.00 in0.0 mm 0.00 in0.0 mm 0.06 in1.5 mm
03:30 PM 71.1°F21.7°C 51.8°F11.0°C 49% 4.2 mph WSW6.8 kmh WSW 10.3 mph16.6 kmh 29.74 in1007.1 mb 0.00 in0.0 mm 0.00 in0.0 mm 0.06 in1.5 mm
03:25 PM 70.9°F21.6°C 51.8°F11.0°C 49% 6.2 mph W10.0 kmh W 10.3 mph16.6 kmh 29.74 in1007.1 mb 0.00 in0.0 mm 0.00 in0.0 mm 0.06 in1.5 mm
03:20 PM 71.1°F21.7°C 51.8°F11.0°C 49% 7.4 mph NW11.9 kmh NW 10.3 mph16.6 kmh 29.74 in1007.1 mb 0.00 in0.0 mm 0.00 in0.0 mm 0.06 in1.5 mm
03:15 PM 72.1°F22.3°C 51.8°F11.0°C 49% 8.1 mph NW13.0 kmh NW 10.1 mph16.3 kmh 29.71 in1006.1 mb 0.00 in0.0 mm 0.00 in0.0 mm 0.06 in1.5 mm
03:10 PM 71.6°F22.0°C 51.8°F11.0°C 48% 7.5 mph W12.1 kmh W 10.1 mph16.3 kmh 29.71 in1006.1 mb 0.00 in0.0 mm 0.00 in0.0 mm 0.06 in1.5 mm
03:05 PM 70.0°F21.1°C 50.0°F10.0°C 49% 4.9 mph SSW7.9 kmh SSW 4.9 mph7.9 kmh 29.71 in1006.1 mb 0.00 in0.0 mm 0.00 in0.0 mm 0.06 in1.5 mm
03:00 PM 69.3°F20.7°C 50.0°F10.0°C 49% 8.1 mph SSW13.0 kmh SSW 8.1 mph13.0 kmh 29.71 in1006.1 mb 0.00 in0.0 mm 0.00 in0.0 mm 0.06 in1.5 mm
02:55 PM 70.0°F21.1°C 50.0°F10.0°C 48% 8.1 mph SSW13.0 kmh SSW 8.1 mph13.0 kmh 29.71 in1006.1 mb 0.00 in0.0 mm 0.00 in0.0 mm 0.06 in1.5 mm
02:50 PM 70.7°F21.5°C 50.0°F10.0°C 48% 7.7 mph SSW12.4 kmh SSW 8.1 mph13.0 kmh 29.71 in1006.1 mb 0.00 in0.0 mm 0.00 in0.0 mm 0.06 in1.5 mm
02:45 PM 71.4°F21.9°C 51.8°F11.0°C 49% 7.0 mph SW11.3 kmh SW 10.1 mph16.3 kmh 29.71 in1006.1 mb 0.00 in0.0 mm 0.00 in0.0 mm 0.06 in1.5 mm
02:40 PM 70.7°F21.5°C 51.8°F11.0°C 49% 7.9 mph NW12.7 kmh NW 10.1 mph16.3 kmh 29.71 in1006.1 mb 0.00 in0.0 mm 0.00 in0.0 mm 0.06 in1.5 mm
02:35 PM 71.2°F21.8°C 51.8°F11.0°C 49% 9.2 mph NW14.8 kmh NW 10.1 mph16.3 kmh 29.71 in1006.1 mb 0.00 in0.0 mm 0.00 in0.0 mm 0.06 in1.5 mm
02:30 PM 71.6°F22.0°C 51.8°F11.0°C 50% 7.5 mph NNW12.1 kmh NNW 10.1 mph16.3 kmh 29.71 in1006.1 mb 0.00 in0.0 mm 0.00 in0.0 mm 0.06 in1.5 mm
02:25 PM 72.1°F22.3°C 53.6°F12.0°C 50% 4.9 mph NW7.9 kmh NW 4.9 mph7.9 kmh 29.71 in1006.1 mb 0.00 in0.0 mm 0.00 in0.0 mm 0.06 in1.5 mm
02:20 PM 72.5°F22.5°C 53.6°F12.0°C 50% 4.9 mph NW7.9 kmh NW 4.9 mph7.9 kmh 29.71 in1006.1 mb 0.00 in0.0 mm 0.00 in0.0 mm 0.06 in1.5 mm
02:15 PM 73.6°F23.1°C 53.6°F12.0°C 49% 5.0 mph NW8.0 kmh NW 5.6 mph9.0 kmh 29.71 in1006.1 mb 0.00 in0.0 mm 0.00 in0.0 mm 0.06 in1.5 mm
02:10 PM 72.1°F22.3°C 53.6°F12.0°C 50% 5.4 mph W8.7 kmh W 5.6 mph9.0 kmh 29.71 in1006.1 mb 0.00 in0.0 mm 0.00 in0.0 mm 0.06 in1.5 mm
02:05 PM 72.0°F22.2°C 53.6°F12.0°C 50% 5.6 mph W9.0 kmh W 5.6 mph9.0 kmh 29.71 in1006.1 mb 0.00 in0.0 mm 0.00 in0.0 mm 0.06 in1.5 mm
02:00 PM 71.4°F21.9°C 51.8°F11.0°C 50% 5.3 mph W8.5 kmh W 5.6 mph9.0 kmh 29.71 in1006.1 mb 0.00 in0.0 mm 0.00 in0.0 mm 0.06 in1.5 mm
01:55 PM 71.6°F22.0°C 51.8°F11.0°C 50% 4.4 mph WSW7.1 kmh WSW 5.6 mph9.0 kmh 29.71 in1006.1 mb 0.00 in0.0 mm 0.00 in0.0 mm 0.06 in1.5 mm
01:50 PM 71.4°F21.9°C 51.8°F11.0°C 50% 3.9 mph SW6.3 kmh SW 6.0 mph9.7 kmh 29.71 in1006.1 mb 0.00 in0.0 mm 0.00 in0.0 mm 0.06 in1.5 mm
01:45 PM 71.8°F22.1°C 51.8°F11.0°C 50% 5.0 mph WSW8.0 kmh WSW 6.0 mph9.7 kmh 29.71 in1006.1 mb 0.00 in0.0 mm 0.00 in0.0 mm 0.06 in1.5 mm
01:40 PM 71.8°F22.1°C 51.8°F11.0°C 50% 8.7 mph SW14.0 kmh SW 13.2 mph21.2 kmh 29.71 in1006.1 mb 0.00 in0.0 mm 0.00 in0.0 mm 0.06 in1.5 mm
01:35 PM 72.1°F22.3°C 53.6°F12.0°C 50% 9.1 mph SW14.6 kmh SW 13.2 mph21.2 kmh 29.71 in1006.1 mb 0.00 in0.0 mm 0.00 in0.0 mm 0.06 in1.5 mm
01:30 PM 71.6°F22.0°C 51.8°F11.0°C 50% 9.2 mph WSW14.8 kmh WSW 13.2 mph21.2 kmh 29.71 in1006.1 mb 0.00 in0.0 mm 0.00 in0.0 mm 0.06 in1.5 mm
01:25 PM 71.6°F22.0°C 53.6°F12.0°C 51% 6.8 mph W10.9 kmh W 7.6 mph12.2 kmh 29.71 in1006.1 mb 0.00 in0.0 mm 0.00 in0.0 mm 0.06 in1.5 mm
01:20 PM 70.9°F21.6°C 51.8°F11.0°C 51% 6.2 mph WSW10.0 kmh WSW 7.6 mph12.2 kmh 29.71 in1006.1 mb 0.00 in0.0 mm 0.00 in0.0 mm 0.06 in1.5 mm
01:15 PM 70.9°F21.6°C 51.8°F11.0°C 51% 8.1 mph WNW13.0 kmh WNW 11.0 mph17.7 kmh 29.71 in1006.1 mb 0.00 in0.0 mm 0.00 in0.0 mm 0.06 in1.5 mm
01:10 PM 71.8°F22.1°C 53.6°F12.0°C 51% 9.6 mph NW15.4 kmh NW 11.0 mph17.7 kmh 29.71 in1006.1 mb 0.00 in0.0 mm 0.00 in0.0 mm 0.06 in1.5 mm
01:05 PM 70.7°F21.5°C 51.8°F11.0°C 51% 7.4 mph WNW11.9 kmh WNW 11.0 mph17.7 kmh 29.71 in1006.1 mb 0.00 in0.0 mm 0.00 in0.0 mm 0.06 in1.5 mm
01:00 PM 70.2°F21.2°C 51.8°F11.0°C 51% 5.9 mph W9.5 kmh W 7.6 mph12.2 kmh 29.71 in1006.1 mb 0.00 in0.0 mm 0.00 in0.0 mm 0.06 in1.5 mm
12:55 PM 69.3°F20.7°C 51.8°F11.0°C 52% 7.7 mph W12.4 kmh W 9.8 mph15.8 kmh 29.71 in1006.1 mb 0.00 in0.0 mm 0.00 in0.0 mm 0.06 in1.5 mm
12:50 PM 69.1°F20.6°C 51.8°F11.0°C 52% 9.8 mph WSW15.8 kmh WSW 9.8 mph15.8 kmh 29.71 in1006.1 mb 0.00 in0.0 mm 0.00 in0.0 mm 0.06 in1.5 mm
12:45 PM 69.1°F20.6°C 51.8°F11.0°C 52% 7.8 mph WSW12.6 kmh WSW 9.8 mph15.8 kmh 29.71 in1006.1 mb 0.00 in0.0 mm 0.00 in0.0 mm 0.06 in1.5 mm
12:40 PM 69.6°F20.9°C 51.8°F11.0°C 52% 4.6 mph WSW7.4 kmh WSW 9.8 mph15.8 kmh 29.71 in1006.1 mb 0.00 in0.0 mm 0.00 in0.0 mm 0.06 in1.5 mm
12:35 PM 70.2°F21.2°C 51.8°F11.0°C 51% 3.0 mph WSW4.8 kmh WSW 3.1 mph5.0 kmh 29.71 in1006.1 mb 0.00 in0.0 mm 0.00 in0.0 mm 0.06 in1.5 mm
12:30 PM 70.5°F21.4°C 51.8°F11.0°C 51% 5.0 mph W8.0 kmh W 7.4 mph11.9 kmh 29.71 in1006.1 mb 0.00 in0.0 mm 0.00 in0.0 mm 0.06 in1.5 mm
12:25 PM 70.5°F21.4°C 51.8°F11.0°C 51% 6.3 mph WNW10.1 kmh WNW 7.4 mph11.9 kmh 29.71 in1006.1 mb 0.00 in0.0 mm 0.00 in0.0 mm 0.06 in1.5 mm
12:20 PM 70.2°F21.2°C 51.8°F11.0°C 52% 3.9 mph W6.3 kmh W 7.4 mph11.9 kmh 29.71 in1006.1 mb 0.00 in0.0 mm 0.00 in0.0 mm 0.06 in1.5 mm
12:15 PM 69.8°F21.0°C 51.8°F11.0°C 51% 3.6 mph WSW5.8 kmh WSW 4.9 mph7.9 kmh 29.71 in1006.1 mb 0.00 in0.0 mm 0.00 in0.0 mm 0.06 in1.5 mm
12:10 PM 69.8°F21.0°C 51.8°F11.0°C 51% 4.5 mph W7.2 kmh W 4.9 mph7.9 kmh 29.71 in1006.1 mb 0.00 in0.0 mm 0.00 in0.0 mm 0.06 in1.5 mm
12:05 PM 69.8°F21.0°C 51.8°F11.0°C 51% 6.3 mph WSW10.1 kmh WSW 9.6 mph15.4 kmh 29.71 in1006.1 mb 0.00 in0.0 mm 0.00 in0.0 mm 0.06 in1.5 mm
12:00 PM 69.8°F21.0°C 51.8°F11.0°C 51% 8.3 mph WSW13.4 kmh WSW 9.6 mph15.4 kmh 29.68 in1005.1 mb 0.00 in0.0 mm 0.00 in0.0 mm 0.06 in1.5 mm
11:55 AM 70.5°F21.4°C 51.8°F11.0°C 50% 9.6 mph WSW15.4 kmh WSW 9.6 mph15.4 kmh 29.68 in1005.1 mb 0.00 in0.0 mm 0.00 in0.0 mm 0.06 in1.5 mm
11:50 AM 71.1°F21.7°C 51.8°F11.0°C 50% 7.8 mph W12.6 kmh W 9.6 mph15.4 kmh 29.68 in1005.1 mb 0.00 in0.0 mm 0.00 in0.0 mm 0.06 in1.5 mm
11:45 AM 72.7°F22.6°C 53.6°F12.0°C 50% 6.0 mph NW9.7 kmh NW 9.6 mph15.4 kmh 29.68 in1005.1 mb 0.00 in0.0 mm 0.00 in0.0 mm 0.06 in1.5 mm
11:40 AM 73.0°F22.8°C 53.6°F12.0°C 50% 5.8 mph NW9.3 kmh NW 6.5 mph10.5 kmh 29.68 in1005.1 mb 0.00 in0.0 mm 0.00 in0.0 mm 0.06 in1.5 mm
11:35 AM 75.0°F23.9°C 55.4°F13.0°C 50% 5.9 mph WNW9.5 kmh WNW 6.5 mph10.5 kmh 29.68 in1005.1 mb 0.00 in0.0 mm 0.00 in0.0 mm 0.06 in1.5 mm
11:30 AM 73.2°F22.9°C 55.4°F13.0°C 51% 5.6 mph SW9.0 kmh SW 5.6 mph9.0 kmh 29.68 in1005.1 mb 0.00 in0.0 mm 0.00 in0.0 mm 0.06 in1.5 mm
11:25 AM 72.5°F22.5°C 55.4°F13.0°C 52% 5.8 mph SW9.3 kmh SW 6.3 mph10.1 kmh 29.68 in1005.1 mb 0.00 in0.0 mm 0.00 in0.0 mm 0.06 in1.5 mm
11:20 AM 73.0°F22.8°C 55.4°F13.0°C 52% 5.1 mph SW8.2 kmh SW 6.3 mph10.1 kmh 29.68 in1005.1 mb 0.00 in0.0 mm 0.00 in0.0 mm 0.06 in1.5 mm
11:15 AM 75.2°F24.0°C 55.4°F13.0°C 51% 5.5 mph SW8.9 kmh SW 7.2 mph11.6 kmh 29.68 in1005.1 mb 0.00 in0.0 mm 0.00 in0.0 mm 0.06 in1.5 mm
11:10 AM 75.2°F24.0°C 55.4°F13.0°C 51% 5.2 mph SSW8.4 kmh SSW 7.2 mph11.6 kmh 29.68 in1005.1 mb 0.00 in0.0 mm 0.00 in0.0 mm 0.06 in1.5 mm
11:05 AM 73.2°F22.9°C 55.4°F13.0°C 53% 4.9 mph E7.9 kmh E 7.2 mph11.6 kmh 29.68 in1005.1 mb 0.00 in0.0 mm 0.00 in0.0 mm 0.06 in1.5 mm
11:00 AM 70.3°F21.3°C 53.6°F12.0°C 54% 4.9 mph NNE7.9 kmh NNE 10.3 mph16.6 kmh 29.68 in1005.1 mb 0.00 in0.0 mm 0.00 in0.0 mm 0.06 in1.5 mm
10:55 AM 70.5°F21.4°C 53.6°F12.0°C 53% 7.6 mph NNW12.2 kmh NNW 10.3 mph16.6 kmh 29.68 in1005.1 mb 0.00 in0.0 mm 0.00 in0.0 mm 0.06 in1.5 mm
10:50 AM 71.2°F21.8°C 53.6°F12.0°C 53% 8.6 mph NW13.8 kmh NW 10.3 mph16.6 kmh 29.68 in1005.1 mb 0.00 in0.0 mm 0.00 in0.0 mm 0.06 in1.5 mm
10:45 AM 73.0°F22.8°C 55.4°F13.0°C 53% 5.6 mph WNW9.0 kmh WNW 10.3 mph16.6 kmh 29.68 in1005.1 mb 0.00 in0.0 mm 0.00 in0.0 mm 0.06 in1.5 mm
10:40 AM 73.8°F23.2°C 55.4°F13.0°C 53% 3.6 mph SW5.8 kmh SW 4.3 mph6.9 kmh 29.68 in1005.1 mb 0.00 in0.0 mm 0.00 in0.0 mm 0.06 in1.5 mm
10:35 AM 71.1°F21.7°C 53.6°F12.0°C 55% 4.7 mph SW7.6 kmh SW 8.1 mph13.0 kmh 29.68 in1005.1 mb 0.00 in0.0 mm 0.00 in0.0 mm 0.06 in1.5 mm
10:30 AM 72.1°F22.3°C 55.4°F13.0°C 54% 6.4 mph SW10.3 kmh SW 8.1 mph13.0 kmh 29.68 in1005.1 mb 0.00 in0.0 mm 0.00 in0.0 mm 0.06 in1.5 mm
10:25 AM 73.4°F23.0°C 55.4°F13.0°C 53% 6.6 mph WSW10.6 kmh WSW 8.1 mph13.0 kmh 29.68 in1005.1 mb 0.00 in0.0 mm 0.00 in0.0 mm 0.06 in1.5 mm
10:20 AM 71.8°F22.1°C 55.4°F13.0°C 54% 6.0 mph WSW9.7 kmh WSW 6.0 mph9.7 kmh 29.68 in1005.1 mb 0.00 in0.0 mm 0.00 in0.0 mm 0.06 in1.5 mm
10:15 AM 72.0°F22.2°C 55.4°F13.0°C 54% 5.2 mph WSW8.4 kmh WSW 6.0 mph9.7 kmh 29.68 in1005.1 mb 0.00 in0.0 mm 0.00 in0.0 mm 0.06 in1.5 mm
10:10 AM 70.9°F21.6°C 55.4°F13.0°C 56% 4.4 mph WSW7.1 kmh WSW 6.0 mph9.7 kmh 29.68 in1005.1 mb 0.00 in0.0 mm 0.00 in0.0 mm 0.06 in1.5 mm
10:05 AM 70.0°F21.1°C 53.6°F12.0°C 55% 3.6 mph WNW5.8 kmh WNW 4.3 mph6.9 kmh 29.68 in1005.1 mb 0.00 in0.0 mm 0.00 in0.0 mm 0.06 in1.5 mm
10:00 AM 70.5°F21.4°C 53.6°F12.0°C 56% 4.5 mph WNW7.2 kmh WNW 5.6 mph9.0 kmh 29.68 in1005.1 mb 0.00 in0.0 mm 0.00 in0.0 mm 0.06 in1.5 mm
09:55 AM 70.5°F21.4°C 55.4°F13.0°C 57% 5.1 mph NW8.2 kmh NW 5.6 mph9.0 kmh 29.68 in1005.1 mb 0.00 in0.0 mm 0.00 in0.0 mm 0.06 in1.5 mm
09:50 AM 70.0°F21.1°C 53.6°F12.0°C 57% 5.6 mph WNW9.0 kmh WNW 5.6 mph9.0 kmh 29.68 in1005.1 mb 0.00 in0.0 mm 0.00 in0.0 mm 0.06 in1.5 mm
09:45 AM 70.2°F21.2°C 55.4°F13.0°C 58% 4.9 mph W7.9 kmh W 5.6 mph9.0 kmh 29.68 in1005.1 mb 0.00 in0.0 mm 0.00 in0.0 mm 0.06 in1.5 mm
09:40 AM 69.3°F20.7°C 53.6°F12.0°C 58% 4.3 mph W6.9 kmh W 5.6 mph9.0 kmh 29.68 in1005.1 mb 0.00 in0.0 mm 0.00 in0.0 mm 0.06 in1.5 mm
09:35 AM 67.8°F19.9°C 53.6°F12.0°C 60% 4.4 mph WNW7.1 kmh WNW 6.0 mph9.7 kmh 29.68 in1005.1 mb 0.00 in0.0 mm 0.00 in0.0 mm 0.06 in1.5 mm
09:30 AM 68.4°F20.2°C 53.6°F12.0°C 59% 5.7 mph W9.2 kmh W 7.6 mph12.2 kmh 29.68 in1005.1 mb 0.00 in0.0 mm 0.00 in0.0 mm 0.06 in1.5 mm
09:25 AM 67.3°F19.6°C 53.6°F12.0°C 61% 6.2 mph W10.0 kmh W 7.6 mph12.2 kmh 29.68 in1005.1 mb 0.00 in0.0 mm 0.00 in0.0 mm 0.06 in1.5 mm
09:20 AM 67.1°F19.5°C 53.6°F12.0°C 61% 4.9 mph WSW7.9 kmh WSW 5.8 mph9.3 kmh 29.68 in1005.1 mb 0.00 in0.0 mm 0.00 in0.0 mm 0.06 in1.5 mm
09:15 AM 67.6°F19.8°C 53.6°F12.0°C 61% 3.4 mph SSW5.5 kmh SSW 3.4 mph5.5 kmh 29.68 in1005.1 mb 0.00 in0.0 mm 0.00 in0.0 mm 0.06 in1.5 mm
09:10 AM 67.5°F19.7°C 53.6°F12.0°C 62% 3.4 mph SSW5.5 kmh SSW 3.4 mph5.5 kmh 29.68 in1005.1 mb 0.00 in0.0 mm 0.00 in0.0 mm 0.06 in1.5 mm
09:05 AM 67.3°F19.6°C 53.6°F12.0°C 62% 3.4 mph SSW5.5 kmh SSW 3.4 mph5.5 kmh 29.68 in1005.1 mb 0.00 in0.0 mm 0.00 in0.0 mm 0.06 in1.5 mm
09:00 AM 66.9°F19.4°C 53.6°F12.0°C 62% 3.7 mph SSW6.0 kmh SSW 4.3 mph6.9 kmh 29.68 in1005.1 mb 0.00 in0.0 mm 0.00 in0.0 mm 0.06 in1.5 mm
08:55 AM 66.4°F19.1°C 53.6°F12.0°C 63% 4.7 mph SW7.6 kmh SW 5.8 mph9.3 kmh 29.68 in1005.1 mb 0.00 in0.0 mm 0.00 in0.0 mm 0.06 in1.5 mm
08:50 AM 65.7°F18.7°C 53.6°F12.0°C 65% 4.4 mph W7.1 kmh W 5.8 mph9.3 kmh 29.68 in1005.1 mb 0.00 in0.0 mm 0.00 in0.0 mm 0.06 in1.5 mm
08:45 AM 65.1°F18.4°C 53.6°F12.0°C 66% 3.5 mph NW5.6 kmh NW 5.8 mph9.3 kmh 29.68 in1005.1 mb 0.00 in0.0 mm 0.00 in0.0 mm 0.06 in1.5 mm
08:40 AM 64.8°F18.2°C 53.6°F12.0°C 66% 3.1 mph NNW5.0 kmh NNW 3.1 mph5.0 kmh 29.68 in1005.1 mb 0.00 in0.0 mm 0.00 in0.0 mm 0.06 in1.5 mm
08:35 AM 64.4°F18.0°C 53.6°F12.0°C 67% 3.4 mph NW5.5 kmh NW 6.5 mph10.5 kmh 29.68 in1005.1 mb 0.00 in0.0 mm 0.00 in0.0 mm 0.06 in1.5 mm
08:30 AM 64.2°F17.9°C 53.6°F12.0°C 68% 3.5 mph W5.6 kmh W 6.5 mph10.5 kmh 29.68 in1005.1 mb 0.00 in0.0 mm 0.00 in0.0 mm 0.06 in1.5 mm
08:25 AM 63.9°F17.7°C 53.6°F12.0°C 68% 5.8 mph W9.3 kmh W 8.7 mph14.0 kmh 29.68 in1005.1 mb 0.00 in0.0 mm 0.00 in0.0 mm 0.06 in1.5 mm
08:20 AM 63.3°F17.4°C 53.6°F12.0°C 69% 7.8 mph W12.6 kmh W 8.7 mph14.0 kmh 29.68 in1005.1 mb 0.00 in0.0 mm 0.00 in0.0 mm 0.06 in1.5 mm
08:15 AM 62.4°F16.9°C 53.6°F12.0°C 70% 6.2 mph W10.0 kmh W 8.7 mph14.0 kmh 29.68 in1005.1 mb 0.00 in0.0 mm 0.00 in0.0 mm 0.06 in1.5 mm
08:10 AM 62.2°F16.8°C 51.8°F11.0°C 69% 4.4 mph W7.1 kmh W 7.4 mph11.9 kmh 29.68 in1005.1 mb 0.00 in0.0 mm 0.00 in0.0 mm 0.06 in1.5 mm
08:05 AM 62.1°F16.7°C 51.8°F11.0°C 70% 3.1 mph W5.0 kmh W 5.6 mph9.0 kmh 29.68 in1005.1 mb 0.00 in0.0 mm 0.00 in0.0 mm 0.06 in1.5 mm
08:00 AM 61.7°F16.5°C 53.6°F12.0°C 71% 4.3 mph W6.9 kmh W 5.6 mph9.0 kmh 29.68 in1005.1 mb 0.00 in0.0 mm 0.00 in0.0 mm 0.06 in1.5 mm
07:55 AM 61.2°F16.2°C 51.8°F11.0°C 71% 5.2 mph W8.4 kmh W 5.6 mph9.0 kmh 29.68 in1005.1 mb 0.00 in0.0 mm 0.00 in0.0 mm 0.06 in1.5 mm
07:50 AM 60.8°F16.0°C 51.8°F11.0°C 71% 5.1 mph NW8.2 kmh NW 9.4 mph15.1 kmh 29.68 in1005.1 mb 0.00 in0.0 mm 0.00 in0.0 mm 0.06 in1.5 mm
07:45 AM 60.6°F15.9°C 51.8°F11.0°C 72% 5.5 mph NW8.9 kmh NW 9.4 mph15.1 kmh 29.68 in1005.1 mb 0.00 in0.0 mm 0.00 in0.0 mm 0.06 in1.5 mm
07:40 AM 60.3°F15.7°C 51.8°F11.0°C 72% 6.4 mph W10.3 kmh W 9.4 mph15.1 kmh 29.68 in1005.1 mb 0.00 in0.0 mm 0.00 in0.0 mm 0.06 in1.5 mm
07:35 AM 60.1°F15.6°C 51.8°F11.0°C 73% 5.5 mph SW8.9 kmh SW 6.3 mph10.1 kmh 29.68 in1005.1 mb 0.00 in0.0 mm 0.00 in0.0 mm 0.06 in1.5 mm
07:30 AM 60.1°F15.6°C 51.8°F11.0°C 74% 4.9 mph WSW7.9 kmh WSW 6.3 mph10.1 kmh 29.68 in1005.1 mb 0.00 in0.0 mm 0.00 in0.0 mm 0.06 in1.5 mm
07:25 AM 60.1°F15.6°C 51.8°F11.0°C 74% 4.1 mph WSW6.6 kmh WSW 5.4 mph8.7 kmh 29.68 in1005.1 mb 0.00 in0.0 mm 0.00 in0.0 mm 0.06 in1.5 mm
07:20 AM 60.1°F15.6°C 51.8°F11.0°C 74% 4.4 mph WSW7.1 kmh WSW 5.4 mph8.7 kmh 29.68 in1005.1 mb 0.00 in0.0 mm 0.00 in0.0 mm 0.06 in1.5 mm
07:15 AM 60.1°F15.6°C 51.8°F11.0°C 74% 4.1 mph WSW6.6 kmh WSW 5.4 mph8.7 kmh 29.68 in1005.1 mb 0.00 in0.0 mm 0.00 in0.0 mm 0.06 in1.5 mm
07:10 AM 59.9°F15.5°C 53.6°F12.0°C 75% 4.9 mph WSW7.9 kmh WSW 7.6 mph12.2 kmh 29.68 in1005.1 mb 0.00 in0.0 mm 0.00 in0.0 mm 0.06 in1.5 mm
07:05 AM 59.9°F15.5°C 53.6°F12.0°C 75% 4.9 mph WSW7.9 kmh WSW 7.6 mph12.2 kmh 29.68 in1005.1 mb 0.00 in0.0 mm 0.00 in0.0 mm 0.06 in1.5 mm
07:00 AM 59.9°F15.5°C 53.6°F12.0°C 76% 5.1 mph WSW8.2 kmh WSW 8.7 mph14.0 kmh 29.65 in1004.1 mb 0.00 in0.0 mm 0.00 in0.0 mm 0.06 in1.5 mm
06:55 AM 59.5°F15.3°C 51.8°F11.0°C 75% 6.8 mph WSW10.9 kmh WSW 8.7 mph14.0 kmh 29.65 in1004.1 mb 0.00 in0.0 mm 0.00 in0.0 mm 0.06 in1.5 mm
06:50 AM 59.5°F15.3°C 51.8°F11.0°C 75% 7.0 mph WNW11.3 kmh WNW 8.7 mph14.0 kmh 29.65 in1004.1 mb 0.00 in0.0 mm 0.00 in0.0 mm 0.06 in1.5 mm
06:45 AM 59.5°F15.3°C 51.8°F11.0°C 75% 5.1 mph WNW8.2 kmh WNW 7.4 mph11.9 kmh 29.65 in1004.1 mb 0.00 in0.0 mm 0.00 in0.0 mm 0.06 in1.5 mm
06:40 AM 59.5°F15.3°C 51.8°F11.0°C 75% 4.2 mph WSW6.8 kmh WSW 7.6 mph12.2 kmh 29.65 in1004.1 mb 0.00 in0.0 mm 0.00 in0.0 mm 0.06 in1.5 mm
06:35 AM 59.5°F15.3°C 51.8°F11.0°C 76% 3.7 mph SW6.0 kmh SW 7.6 mph12.2 kmh 29.65 in1004.1 mb 0.00 in0.0 mm 0.00 in0.0 mm 0.06 in1.5 mm
06:30 AM 59.7°F15.4°C 51.8°F11.0°C 76% 3.2 mph WSW5.1 kmh WSW 5.4 mph8.7 kmh 29.65 in1004.1 mb 0.00 in0.0 mm 0.00 in0.0 mm 0.06 in1.5 mm
06:25 AM 59.9°F15.5°C 53.6°F12.0°C 76% 3.1 mph W5.0 kmh W 5.4 mph8.7 kmh 29.65 in1004.1 mb 0.00 in0.0 mm 0.00 in0.0 mm 0.06 in1.5 mm
06:20 AM 60.1°F15.6°C 53.6°F12.0°C 76% 3.2 mph SW5.1 kmh SW 4.9 mph7.9 kmh 29.65 in1004.1 mb 0.00 in0.0 mm 0.00 in0.0 mm 0.06 in1.5 mm
06:15 AM 60.1°F15.6°C 53.6°F12.0°C 77% 3.6 mph WSW5.8 kmh WSW 9.2 mph14.8 kmh 29.65 in1004.1 mb 0.00 in0.0 mm 0.00 in0.0 mm 0.06 in1.5 mm
06:10 AM 60.1°F15.6°C 53.6°F12.0°C 77% 4.6 mph WSW7.4 kmh WSW 9.2 mph14.8 kmh 29.65 in1004.1 mb 0.00 in0.0 mm 0.00 in0.0 mm 0.06 in1.5 mm
06:05 AM 60.1°F15.6°C 53.6°F12.0°C 76% 5.1 mph W8.2 kmh W 9.2 mph14.8 kmh 29.65 in1004.1 mb 0.00 in0.0 mm 0.00 in0.0 mm 0.06 in1.5 mm
06:00 AM 60.4°F15.8°C 53.6°F12.0°C 77% 3.0 mph WSW4.8 kmh WSW 4.3 mph6.9 kmh 29.65 in1004.1 mb 0.00 in0.0 mm 0.00 in0.0 mm 0.06 in1.5 mm
05:55 AM 60.4°F15.8°C 53.6°F12.0°C 78% 3.2 mph SW5.1 kmh SW 4.9 mph7.9 kmh 29.65 in1004.1 mb 0.00 in0.0 mm 0.00 in0.0 mm 0.06 in1.5 mm
05:50 AM 60.4°F15.8°C 53.6°F12.0°C 79% 3.8 mph SW6.1 kmh SW 4.9 mph7.9 kmh 29.65 in1004.1 mb 0.00 in0.0 mm 0.00 in0.0 mm 0.06 in1.5 mm
05:45 AM 60.4°F15.8°C 53.6°F12.0°C 79% 3.2 mph SSW5.1 kmh SSW 4.0 mph6.4 kmh 29.65 in1004.1 mb 0.00 in0.0 mm 0.00 in0.0 mm 0.06 in1.5 mm
05:40 AM 60.3°F15.7°C 53.6°F12.0°C 79% 2.8 mph SSW4.5 kmh SSW 3.6 mph5.8 kmh 29.65 in1004.1 mb 0.00 in0.0 mm 0.00 in0.0 mm 0.06 in1.5 mm
05:35 AM 60.1°F15.6°C 53.6°F12.0°C 79% 3.3 mph S5.3 kmh S 4.0 mph6.4 kmh 29.65 in1004.1 mb 0.00 in0.0 mm 0.00 in0.0 mm 0.06 in1.5 mm
05:30 AM 60.1°F15.6°C 53.6°F12.0°C 79% 2.8 mph S4.5 kmh S 4.0 mph6.4 kmh 29.65 in1004.1 mb 0.00 in0.0 mm 0.00 in0.0 mm 0.06 in1.5 mm
05:25 AM 59.9°F15.5°C 53.6°F12.0°C 79% 1.9 mph SSW3.1 kmh SSW 2.9 mph4.7 kmh 29.65 in1004.1 mb 0.00 in0.0 mm 0.00 in0.0 mm 0.06 in1.5 mm
05:20 AM 59.9°F15.5°C 53.6°F12.0°C 79% 2.9 mph S4.7 kmh S 6.3 mph10.1 kmh 29.65 in1004.1 mb 0.00 in0.0 mm 0.00 in0.0 mm 0.06 in1.5 mm
05:15 AM 59.9°F15.5°C 53.6°F12.0°C 79% 3.0 mph S4.8 kmh S 6.3 mph10.1 kmh 29.65 in1004.1 mb 0.00 in0.0 mm 0.00 in0.0 mm 0.06 in1.5 mm
05:10 AM 59.9°F15.5°C 53.6°F12.0°C 79% 1.7 mph SSW2.7 kmh SSW 2.7 mph4.3 kmh 29.65 in1004.1 mb 0.00 in0.0 mm 0.00 in0.0 mm 0.06 in1.5 mm
05:05 AM 59.9°F15.5°C 53.6°F12.0°C 79% 2.8 mph SSW4.5 kmh SSW 4.0 mph6.4 kmh 29.65 in1004.1 mb 0.00 in0.0 mm 0.00 in0.0 mm 0.06 in1.5 mm
05:00 AM 59.9°F15.5°C 53.6°F12.0°C 79% 3.2 mph SSW5.1 kmh SSW 4.0 mph6.4 kmh 29.65 in1004.1 mb 0.00 in0.0 mm 0.00 in0.0 mm 0.06 in1.5 mm
04:55 AM 59.9°F15.5°C 53.6°F12.0°C 79% 3.3 mph SSW5.3 kmh SSW 4.0 mph6.4 kmh 29.65 in1004.1 mb 0.00 in0.0 mm 0.00 in0.0 mm 0.06 in1.5 mm
04:50 AM 59.9°F15.5°C 53.6°F12.0°C 79% 3.0 mph S4.8 kmh S 4.0 mph6.4 kmh 29.65 in1004.1 mb 0.00 in0.0 mm 0.00 in0.0 mm 0.06 in1.5 mm
04:45 AM 59.9°F15.5°C 53.6°F12.0°C 79% 2.4 mph SSE3.9 kmh SSE 3.6 mph5.8 kmh 29.65 in1004.1 mb 0.00 in0.0 mm 0.00 in0.0 mm 0.06 in1.5 mm
04:40 AM 59.9°F15.5°C 53.6°F12.0°C 79% 2.4 mph S3.9 kmh S 2.9 mph4.7 kmh 29.65 in1004.1 mb 0.00 in0.0 mm 0.00 in0.0 mm 0.06 in1.5 mm
04:35 AM 59.7°F15.4°C 53.6°F12.0°C 79% 3.3 mph SSW5.3 kmh SSW 6.3 mph10.1 kmh 29.65 in1004.1 mb 0.00 in0.0 mm 0.00 in0.0 mm 0.06 in1.5 mm
04:30 AM 59.9°F15.5°C 53.6°F12.0°C 79% 3.8 mph SSW6.1 kmh SSW 6.3 mph10.1 kmh 29.65 in1004.1 mb 0.00 in0.0 mm 0.00 in0.0 mm 0.06 in1.5 mm
04:25 AM 59.7°F15.4°C 53.6°F12.0°C 79% 3.5 mph SSW5.6 kmh SSW 4.7 mph7.6 kmh 29.65 in1004.1 mb 0.00 in0.0 mm 0.00 in0.0 mm 0.06 in1.5 mm
04:20 AM 59.7°F15.4°C 53.6°F12.0°C 78% 3.5 mph S5.6 kmh S 4.7 mph7.6 kmh 29.65 in1004.1 mb 0.00 in0.0 mm 0.00 in0.0 mm 0.06 in1.5 mm
04:15 AM 59.7°F15.4°C 53.6°F12.0°C 78% 3.3 mph S5.3 kmh S 3.8 mph6.1 kmh 29.65 in1004.1 mb 0.00 in0.0 mm 0.00 in0.0 mm 0.06 in1.5 mm
04:10 AM 59.7°F15.4°C 53.6°F12.0°C 78% 3.4 mph SSW5.5 kmh SSW 5.6 mph9.0 kmh 29.65 in1004.1 mb 0.00 in0.0 mm 0.00 in0.0 mm 0.06 in1.5 mm
04:05 AM 59.7°F15.4°C 53.6°F12.0°C 78% 3.1 mph SSW5.0 kmh SSW 5.6 mph9.0 kmh 29.65 in1004.1 mb 0.00 in0.0 mm 0.00 in0.0 mm 0.06 in1.5 mm
04:00 AM 59.7°F15.4°C 53.6°F12.0°C 78% 3.7 mph S6.0 kmh S 6.5 mph10.5 kmh 29.65 in1004.1 mb 0.00 in0.0 mm 0.00 in0.0 mm 0.06 in1.5 mm
03:55 AM 59.7°F15.4°C 53.6°F12.0°C 78% 5.5 mph S8.9 kmh S 6.5 mph10.5 kmh 29.65 in1004.1 mb 0.00 in0.0 mm 0.00 in0.0 mm 0.06 in1.5 mm
03:50 AM 59.7°F15.4°C 53.6°F12.0°C 78% 4.7 mph S7.6 kmh S 5.6 mph9.0 kmh 29.65 in1004.1 mb 0.00 in0.0 mm 0.00 in0.0 mm 0.06 in1.5 mm
03:45 AM 59.7°F15.4°C 53.6°F12.0°C 78% 4.3 mph S6.9 kmh S 5.6 mph9.0 kmh 29.65 in1004.1 mb 0.00 in0.0 mm 0.00 in0.0 mm 0.06 in1.5 mm
03:40 AM 59.7°F15.4°C 53.6°F12.0°C 78% 3.4 mph SSW5.5 kmh SSW 3.8 mph6.1 kmh 29.65 in1004.1 mb 0.00 in0.0 mm 0.00 in0.0 mm 0.06 in1.5 mm
03:35 AM 59.5°F15.3°C 53.6°F12.0°C 78% 3.4 mph SSW5.5 kmh SSW 4.0 mph6.4 kmh 29.65 in1004.1 mb 0.00 in0.0 mm 0.00 in0.0 mm 0.06 in1.5 mm
03:30 AM 59.7°F15.4°C 53.6°F12.0°C 78% 3.1 mph S5.0 kmh S 4.5 mph7.2 kmh 29.65 in1004.1 mb 0.00 in0.0 mm 0.00 in0.0 mm 0.06 in1.5 mm
03:25 AM 59.7°F15.4°C 53.6°F12.0°C 78% 2.7 mph SSE4.3 kmh SSE 4.5 mph7.2 kmh 29.65 in1004.1 mb 0.00 in0.0 mm 0.00 in0.0 mm 0.06 in1.5 mm
03:20 AM 59.7°F15.4°C 53.6°F12.0°C 78% 2.7 mph SSE4.3 kmh SSE 4.5 mph7.2 kmh 29.65 in1004.1 mb 0.00 in0.0 mm 0.00 in0.0 mm 0.06 in1.5 mm
03:15 AM 59.7°F15.4°C 53.6°F12.0°C 78% 2.7 mph SSE4.3 kmh SSE 4.9 mph7.9 kmh 29.65 in1004.1 mb 0.00 in0.0 mm 0.00 in0.0 mm 0.06 in1.5 mm
03:10 AM 59.7°F15.4°C 53.6°F12.0°C 78% 2.9 mph SSE4.7 kmh SSE 4.9 mph7.9 kmh 29.65 in1004.1 mb 0.00 in0.0 mm 0.00 in0.0 mm 0.06 in1.5 mm
03:05 AM 59.7°F15.4°C 53.6°F12.0°C 78% 3.0 mph SSE4.8 kmh SSE 3.8 mph6.1 kmh 29.65 in1004.1 mb 0.00 in0.0 mm 0.00 in0.0 mm 0.06 in1.5 mm
03:00 AM 59.7°F15.4°C 53.6°F12.0°C 78% 3.4 mph S5.5 kmh S 5.4 mph8.7 kmh 29.65 in1004.1 mb 0.00 in0.0 mm 0.00 in0.0 mm 0.06 in1.5 mm
02:55 AM 59.7°F15.4°C 53.6°F12.0°C 78% 3.3 mph S5.3 kmh S 5.4 mph8.7 kmh 29.65 in1004.1 mb 0.00 in0.0 mm 0.00 in0.0 mm 0.06 in1.5 mm
02:50 AM 59.7°F15.4°C 53.6°F12.0°C 78% 3.2 mph S5.1 kmh S 4.9 mph7.9 kmh 29.65 in1004.1 mb 0.00 in0.0 mm 0.00 in0.0 mm 0.06 in1.5 mm
02:45 AM 59.7°F15.4°C 53.6°F12.0°C 77% 3.1 mph S5.0 kmh S 4.9 mph7.9 kmh 29.65 in1004.1 mb 0.00 in0.0 mm 0.00 in0.0 mm 0.06 in1.5 mm
02:40 AM 59.7°F15.4°C 53.6°F12.0°C 77% 3.4 mph S5.5 kmh S 4.9 mph7.9 kmh 29.65 in1004.1 mb 0.06 in1.5 mm 0.00 in0.0 mm 0.06 in1.5 mm
02:35 AM 59.7°F15.4°C 53.6°F12.0°C 77% 4.7 mph S7.6 kmh S 5.8 mph9.3 kmh 29.65 in1004.1 mb 0.06 in1.5 mm 0.00 in0.0 mm 0.06 in1.5 mm
02:30 AM 59.9°F15.5°C 53.6°F12.0°C 77% 4.6 mph S7.4 kmh S 5.8 mph9.3 kmh 29.68 in1005.1 mb 0.06 in1.5 mm 0.00 in0.0 mm 0.06 in1.5 mm
02:25 AM 59.9°F15.5°C 53.6°F12.0°C 77% 3.4 mph SSE5.5 kmh SSE 4.0 mph6.4 kmh 29.68 in1005.1 mb 0.06 in1.5 mm 0.00 in0.0 mm 0.06 in1.5 mm
02:20 AM 59.9°F15.5°C 53.6°F12.0°C 77% 3.0 mph S4.8 kmh S 4.0 mph6.4 kmh 29.68 in1005.1 mb 0.06 in1.5 mm 0.00 in0.0 mm 0.06 in1.5 mm
02:15 AM 59.9°F15.5°C 53.6°F12.0°C 77% 2.8 mph SSW4.5 kmh SSW 3.8 mph6.1 kmh 29.68 in1005.1 mb 0.06 in1.5 mm 0.00 in0.0 mm 0.06 in1.5 mm
02:10 AM 59.9°F15.5°C 53.6°F12.0°C 77% 2.7 mph S4.3 kmh S 3.8 mph6.1 kmh 29.68 in1005.1 mb 0.06 in1.5 mm 0.00 in0.0 mm 0.06 in1.5 mm
02:05 AM 59.9°F15.5°C 53.6°F12.0°C 76% 2.8 mph S4.5 kmh S 3.8 mph6.1 kmh 29.68 in1005.1 mb 0.06 in1.5 mm 0.00 in0.0 mm 0.06 in1.5 mm
02:00 AM 60.1°F15.6°C 53.6°F12.0°C 77% 2.8 mph S4.5 kmh S 3.4 mph5.5 kmh 29.68 in1005.1 mb 0.06 in1.5 mm 0.00 in0.0 mm 0.06 in1.5 mm
01:55 AM 60.1°F15.6°C 53.6°F12.0°C 76% 2.7 mph S4.3 kmh S 3.8 mph6.1 kmh 29.68 in1005.1 mb 0.06 in1.5 mm 0.00 in0.0 mm 0.06 in1.5 mm
01:50 AM 60.3°F15.7°C 53.6°F12.0°C 76% 2.5 mph S4.0 kmh S 3.8 mph6.1 kmh 29.68 in1005.1 mb 0.06 in1.5 mm 0.00 in0.0 mm 0.06 in1.5 mm
01:45 AM 60.3°F15.7°C 53.6°F12.0°C 75% 1.9 mph S3.1 kmh S 2.7 mph4.3 kmh 29.68 in1005.1 mb 0.06 in1.5 mm 0.72 in18.3 mm 0.06 in1.5 mm
01:40 AM 60.4°F15.8°C 53.6°F12.0°C 76% 1.7 mph SSE2.7 kmh SSE 2.7 mph4.3 kmh 29.68 in1005.1 mb 0.00 in0.0 mm 0.00 in0.0 mm 0.00 in0.0 mm
01:35 AM 60.3°F15.7°C 53.6°F12.0°C 75% 2.0 mph SSE3.2 kmh SSE 2.9 mph4.7 kmh 29.68 in1005.1 mb 0.00 in0.0 mm 0.00 in0.0 mm 0.00 in0.0 mm
01:30 AM 60.3°F15.7°C 53.6°F12.0°C 75% 2.7 mph SSE4.3 kmh SSE 2.9 mph4.7 kmh 29.68 in1005.1 mb 0.00 in0.0 mm 0.00 in0.0 mm 0.00 in0.0 mm
01:25 AM 60.3°F15.7°C 53.6°F12.0°C 75% 2.6 mph SSE4.2 kmh SSE 2.9 mph4.7 kmh 29.68 in1005.1 mb 0.00 in0.0 mm 0.00 in0.0 mm 0.00 in0.0 mm
01:20 AM 60.3°F15.7°C 53.6°F12.0°C 75% 2.2 mph SSE3.5 kmh SSE 3.4 mph5.5 kmh 29.68 in1005.1 mb 0.00 in0.0 mm 0.00 in0.0 mm 0.00 in0.0 mm
01:15 AM 60.3°F15.7°C 53.6°F12.0°C 75% 2.4 mph SSE3.9 kmh SSE 3.4 mph5.5 kmh 29.71 in1006.1 mb 0.00 in0.0 mm 0.00 in0.0 mm 0.00 in0.0 mm
01:10 AM 60.3°F15.7°C 53.6°F12.0°C 75% 1.9 mph SSE3.1 kmh SSE 3.4 mph5.5 kmh 29.71 in1006.1 mb 0.00 in0.0 mm 0.00 in0.0 mm 0.00 in0.0 mm
01:05 AM 60.3°F15.7°C 53.6°F12.0°C 75% 0.8 mph S1.3 kmh S 2.7 mph4.3 kmh 29.71 in1006.1 mb 0.00 in0.0 mm 0.00 in0.0 mm 0.00 in0.0 mm
01:00 AM 60.3°F15.7°C 53.6°F12.0°C 75% Calm Calm -- 29.71 in1006.1 mb 0.00 in0.0 mm 0.00 in0.0 mm 0.00 in0.0 mm
12:55 AM 60.1°F15.6°C 53.6°F12.0°C 76% 0.2 mph NNE0.3 kmh NNE 1.3 mph2.1 kmh 29.71 in1006.1 mb 0.00 in0.0 mm 0.00 in0.0 mm 0.00 in0.0 mm
12:50 AM 60.3°F15.7°C 53.6°F12.0°C 75% 0.2 mph NNE0.3 kmh NNE 1.3 mph2.1 kmh 29.71 in1006.1 mb 0.00 in0.0 mm 0.00 in0.0 mm 0.00 in0.0 mm
12:45 AM 60.3°F15.7°C 53.6°F12.0°C 76% 0.1 mph NNE0.2 kmh NNE 1.1 mph1.8 kmh 29.71 in1006.1 mb 0.00 in0.0 mm 0.00 in0.0 mm 0.00 in0.0 mm
12:40 AM 60.1°F15.6°C 53.6°F12.0°C 75% 0.3 mph NNE0.5 kmh NNE 1.1 mph1.8 kmh 29.71 in1006.1 mb 0.00 in0.0 mm 0.00 in0.0 mm 0.00 in0.0 mm
12:35 AM 60.3°F15.7°C 53.6°F12.0°C 75% 0.7 mph E1.1 kmh E 1.3 mph2.1 kmh 29.71 in1006.1 mb 0.00 in0.0 mm 0.00 in0.0 mm 0.00 in0.0 mm
12:30 AM 60.1°F15.6°C 53.6°F12.0°C 75% 1.4 mph SE2.3 kmh SE 2.5 mph4.0 kmh 29.71 in1006.1 mb 0.00 in0.0 mm 0.00 in0.0 mm 0.00 in0.0 mm
12:25 AM 60.1°F15.6°C 51.8°F11.0°C 74% 1.0 mph SE1.6 kmh SE 2.5 mph4.0 kmh 29.71 in1006.1 mb 0.00 in0.0 mm 0.00 in0.0 mm 0.00 in0.0 mm
12:20 AM 60.3°F15.7°C 53.6°F12.0°C 75% 0.7 mph SE1.1 kmh SE 1.3 mph2.1 kmh 29.71 in1006.1 mb 0.00 in0.0 mm 0.00 in0.0 mm 0.00 in0.0 mm
12:15 AM 60.3°F15.7°C 51.8°F11.0°C 74% 0.5 mph SE0.8 kmh SE 1.3 mph2.1 kmh 29.71 in1006.1 mb 0.00 in0.0 mm 0.00 in0.0 mm 0.00 in0.0 mm
12:10 AM 60.3°F15.7°C 51.8°F11.0°C 74% 0.4 mph SE0.6 kmh SE 1.1 mph1.8 kmh 29.71 in1006.1 mb 0.00 in0.0 mm 0.00 in0.0 mm 0.00 in0.0 mm
12:05 AM 60.1°F15.6°C 51.8°F11.0°C 74% 0.6 mph SE1.0 kmh SE 1.1 mph1.8 kmh 29.71 in1006.1 mb 0.00 in0.0 mm 0.00 in0.0 mm 0.00 in0.0 mm
12:00 AM 60.1°F15.6°C 51.8°F11.0°C 74% 0.5 mph SE0.8 kmh SE 1.1 mph1.8 kmh 29.71 in1006.1 mb 0.00 in0.0 mm 0.00 in0.0 mm 0.00 in0.0 mm